createdAt,value
2022-10-22T00:00:34.529Z,1521.9
2022-10-22T00:01:34.529Z,1521.9
2022-10-22T00:02:34.564Z,1522.1
2022-10-22T00:03:34.523Z,1521.9
2022-10-22T00:04:35.535Z,1522
2022-10-22T00:05:34.534Z,1521.9
2022-10-22T00:06:34.535Z,1521.8
2022-10-22T00:07:34.526Z,1521.8
2022-10-22T00:08:34.596Z,1521.8
2022-10-22T00:09:34.532Z,1521.8
2022-10-22T00:10:34.534Z,1521.8
2022-10-22T00:11:34.803Z,1521.8
2022-10-22T00:12:34.554Z,1521.9
2022-10-22T00:13:34.586Z,1521.8
2022-10-22T00:14:34.532Z,1521.8
2022-10-22T00:15:34.540Z,1521.7
2022-10-22T00:16:34.531Z,1521.6
2022-10-22T00:17:34.525Z,1521.7
2022-10-22T00:18:34.573Z,1521.7
2022-10-22T00:19:34.531Z,1521.6
2022-10-22T00:20:34.534Z,1521.5
2022-10-22T00:21:34.536Z,1521.5
2022-10-22T00:22:34.729Z,1521.5
2022-10-22T00:23:34.529Z,1521.4
2022-10-22T00:24:34.526Z,1521.3
2022-10-22T00:25:34.536Z,1521.3
2022-10-22T00:26:34.538Z,1521.2
2022-10-22T00:27:34.538Z,1521.2
2022-10-22T00:28:34.537Z,1521.2
2022-10-22T00:29:34.545Z,1521
2022-10-22T00:30:34.537Z,1520.9
2022-10-22T00:31:34.536Z,1520.7
2022-10-22T00:32:34.533Z,1520.9
2022-10-22T00:33:34.538Z,1520.9
2022-10-22T00:34:34.538Z,1520.8
2022-10-22T00:35:34.555Z,1520.8
2022-10-22T00:36:34.533Z,1520.8
2022-10-22T00:37:34.541Z,1520.9
2022-10-22T00:39:34.537Z,1520.9
2022-10-22T00:40:34.536Z,1520.9
2022-10-22T00:41:34.547Z,1521
2022-10-22T00:42:34.535Z,1520.9
2022-10-22T00:43:34.568Z,1521
2022-10-22T00:44:34.538Z,1520.9
2022-10-22T00:45:34.539Z,1520.9
2022-10-22T00:46:34.545Z,1520.9
2022-10-22T00:47:34.542Z,1521
2022-10-22T00:48:34.552Z,1520.9
2022-10-22T00:49:34.538Z,1520.8
2022-10-22T00:50:34.548Z,1520.8
2022-10-22T00:51:34.547Z,1520.8
2022-10-22T00:52:34.543Z,1520.8
2022-10-22T00:53:34.547Z,1520.8
2022-10-22T00:54:34.543Z,1520.8
2022-10-22T00:55:34.549Z,1520.9
2022-10-22T00:56:34.546Z,1520.8
2022-10-22T00:57:34.551Z,1520.8
2022-10-22T00:58:34.549Z,1521.1
2022-10-22T00:59:34.550Z,1521
2022-10-22T01:00:34.630Z,1521
2022-10-22T01:01:34.577Z,1521
2022-10-22T01:02:34.550Z,1520.8
2022-10-22T01:03:34.550Z,1520.9
2022-10-22T01:04:34.547Z,1520.9
2022-10-22T01:05:34.545Z,1521
2022-10-22T01:06:34.559Z,1521
2022-10-22T01:07:34.555Z,1520.9
2022-10-22T01:08:34.583Z,1521
2022-10-22T01:09:34.559Z,1521
2022-10-22T01:10:34.551Z,1521
2022-10-22T01:11:34.548Z,1520.9
2022-10-22T01:12:34.552Z,1520.9
2022-10-22T01:13:34.542Z,1520.8
2022-10-22T01:14:34.579Z,1520.9
2022-10-22T01:15:34.568Z,1520.8
2022-10-22T01:16:34.547Z,1520.8
2022-10-22T01:17:34.616Z,1521
2022-10-22T01:18:34.548Z,1520.8
2022-10-22T01:19:34.552Z,1520.8
2022-10-22T01:20:34.562Z,1520.7
2022-10-22T01:21:34.551Z,1520.7
2022-10-22T01:22:34.552Z,1520.7
2022-10-22T01:23:34.554Z,1520.6
2022-10-22T01:24:34.554Z,1520.6
2022-10-22T01:25:34.551Z,1520.5
2022-10-22T01:26:34.550Z,1520.5
2022-10-22T01:27:34.560Z,1520.5
2022-10-22T01:28:34.556Z,1520.5
2022-10-22T01:29:34.555Z,1520.5
2022-10-22T01:30:34.569Z,1520.5
2022-10-22T01:31:34.557Z,1520.5
2022-10-22T01:32:34.559Z,1520.5
2022-10-22T01:33:34.571Z,1520.4
2022-10-22T01:34:34.570Z,1520.4
2022-10-22T01:35:34.594Z,1520.4
2022-10-22T01:36:34.554Z,1520.4
2022-10-22T01:37:34.564Z,1520.4
2022-10-22T01:38:34.556Z,1520.4
2022-10-22T01:39:34.557Z,1520.4
2022-10-22T01:40:34.563Z,1520.4
2022-10-22T01:41:34.558Z,1520.4
2022-10-22T01:42:34.564Z,1520.4
2022-10-22T01:43:34.561Z,1520.4
2022-10-22T01:45:34.582Z,1520.2
2022-10-22T01:47:34.558Z,1520.3
2022-10-22T01:48:34.548Z,1520.2
2022-10-22T01:49:34.562Z,1520.3
2022-10-22T01:50:34.560Z,1520.1
2022-10-22T01:51:34.558Z,1520.2
2022-10-22T01:52:34.562Z,1520.3
2022-10-22T01:53:34.654Z,1520.2
2022-10-22T01:54:34.559Z,1520
2022-10-22T01:55:34.563Z,1520
2022-10-22T01:56:34.561Z,1520.1
2022-10-22T01:57:34.569Z,1520
2022-10-22T01:58:34.558Z,1520.2
2022-10-22T01:59:34.563Z,1520.2
2022-10-22T02:00:34.610Z,1520.2
2022-10-22T02:01:34.562Z,1520.3
2022-10-22T02:02:34.616Z,1520.4
2022-10-22T02:03:34.559Z,1520.4
2022-10-22T02:04:34.558Z,1520.3
2022-10-22T02:05:34.577Z,1520.4
2022-10-22T02:06:34.563Z,1520.3
2022-10-22T02:07:34.565Z,1520.3
2022-10-22T02:08:34.665Z,1520.3
2022-10-22T02:09:34.564Z,1520
2022-10-22T02:10:34.573Z,1520
2022-10-22T02:11:34.564Z,1519.9
2022-10-22T02:13:34.564Z,1520
2022-10-22T02:14:34.565Z,1520.1
2022-10-22T02:15:34.566Z,1520.1
2022-10-22T02:16:34.597Z,1520
2022-10-22T02:17:34.566Z,1520
2022-10-22T02:18:36.452Z,1519.9
2022-10-22T02:19:34.571Z,1519.9
2022-10-22T02:20:34.573Z,1520.1
2022-10-22T02:21:34.564Z,1520
2022-10-22T02:22:34.567Z,1520
2022-10-22T02:23:34.567Z,1520
2022-10-22T02:24:34.571Z,1520
2022-10-22T02:25:34.563Z,1520
2022-10-22T02:26:34.567Z,1520.1
2022-10-22T02:27:34.566Z,1520
2022-10-22T02:28:34.564Z,1520
2022-10-22T02:29:34.565Z,1520
2022-10-22T02:30:34.577Z,1520
2022-10-22T02:31:34.568Z,1520
2022-10-22T02:32:34.567Z,1520
2022-10-22T02:33:34.575Z,1519.9
2022-10-22T02:34:34.575Z,1520.1
2022-10-22T02:35:34.580Z,1519.9
2022-10-22T02:36:34.573Z,1519.9
2022-10-22T02:37:34.574Z,1519.9
2022-10-22T02:38:34.575Z,1520
2022-10-22T02:39:34.572Z,1519.9
2022-10-22T02:40:34.576Z,1519.9
2022-10-22T02:41:34.567Z,1519.8
2022-10-22T02:42:34.575Z,1519.9
2022-10-22T02:43:34.577Z,1519.9
2022-10-22T02:44:34.596Z,1519.8
2022-10-22T02:46:34.579Z,1519.7
2022-10-22T02:47:34.607Z,1519.8
2022-10-22T02:48:34.578Z,1519.7
2022-10-22T02:49:34.581Z,1519.7
2022-10-22T02:50:34.577Z,1519.7
2022-10-22T02:51:34.580Z,1519.7
2022-10-22T02:52:34.581Z,1519.7
2022-10-22T02:53:34.587Z,1519.7
2022-10-22T02:54:34.572Z,1519.6
2022-10-22T02:55:34.583Z,1519.6
2022-10-22T02:56:34.580Z,1519.6
2022-10-22T02:57:34.578Z,1519.6
2022-10-22T02:59:34.584Z,1519.4
2022-10-22T03:00:34.649Z,1519.6
2022-10-22T03:01:34.580Z,1519.5
2022-10-22T03:02:34.600Z,1519.6
2022-10-22T03:03:34.579Z,1519.6
2022-10-22T03:04:34.578Z,1519.5
2022-10-22T03:05:34.579Z,1519.6
2022-10-22T03:06:34.598Z,1519.6
2022-10-22T03:07:34.608Z,1519.7
2022-10-22T03:08:34.615Z,1519.7
2022-10-22T03:09:34.581Z,1519.7
2022-10-22T03:10:34.587Z,1519.7
2022-10-22T03:11:34.579Z,1519.7
2022-10-22T03:12:34.589Z,1519.7
2022-10-22T03:13:34.589Z,1519.8
2022-10-22T03:14:34.585Z,1519.5
2022-10-22T03:15:34.595Z,1519.4
2022-10-22T03:16:34.593Z,1519.4
2022-10-22T03:17:34.588Z,1519.6
2022-10-22T03:18:34.611Z,1519.4
2022-10-22T03:19:34.588Z,1519.3
2022-10-22T03:20:34.585Z,1519.2
2022-10-22T03:21:34.586Z,1519.3
2022-10-22T03:22:34.594Z,1519.4
2022-10-22T03:23:34.595Z,1519.3
2022-10-22T03:24:34.582Z,1519
2022-10-22T03:25:34.704Z,1519.1
2022-10-22T03:26:34.592Z,1519.1
2022-10-22T03:27:34.591Z,1519
2022-10-22T03:28:34.587Z,1519
2022-10-22T03:29:34.592Z,1519.4
2022-10-22T03:30:34.589Z,1519.4
2022-10-22T03:31:34.587Z,1519.4
2022-10-22T03:32:34.589Z,1519.1
2022-10-22T03:33:34.604Z,1519.3
2022-10-22T03:34:34.590Z,1519.2
2022-10-22T03:35:34.596Z,1519.2
2022-10-22T03:36:34.592Z,1519.2
2022-10-22T03:37:34.618Z,1519.3
2022-10-22T03:38:34.604Z,1519
2022-10-22T03:39:34.596Z,1519.1
2022-10-22T03:40:34.596Z,1519.2
2022-10-22T03:41:34.588Z,1519.2
2022-10-22T03:42:34.587Z,1519.1
2022-10-22T03:43:34.606Z,1519.5
2022-10-22T03:44:34.590Z,1519.2
2022-10-22T03:45:34.635Z,1519.2
2022-10-22T03:46:34.599Z,1519.2
2022-10-22T03:47:34.591Z,1519.1
2022-10-22T03:48:34.597Z,1519.1
2022-10-22T03:49:34.625Z,1519.2
2022-10-22T03:50:34.598Z,1519.3
2022-10-22T03:51:34.592Z,1519.4
2022-10-22T03:52:34.601Z,1519.3
2022-10-22T03:53:34.596Z,1519.5
2022-10-22T03:54:34.650Z,1519.6
2022-10-22T03:55:34.597Z,1519.5
2022-10-22T03:56:34.594Z,1519.3
2022-10-22T03:57:34.592Z,1519.5
2022-10-22T03:58:34.592Z,1519.8
2022-10-22T03:59:34.594Z,1519.7
2022-10-22T04:00:34.595Z,1519.7
2022-10-22T04:01:34.661Z,1519.7
2022-10-22T04:03:34.595Z,1519.7
2022-10-22T04:04:34.591Z,1519.8
2022-10-22T04:05:34.617Z,1519.7
2022-10-22T04:06:34.594Z,1519.7
2022-10-22T04:07:34.601Z,1519.9
2022-10-22T04:08:34.639Z,1519.9
2022-10-22T04:09:34.784Z,1519.9
2022-10-22T04:10:34.603Z,1519.8
2022-10-22T04:11:34.605Z,1519.9
2022-10-22T04:12:34.609Z,1519.9
2022-10-22T04:13:34.595Z,1519.9
2022-10-22T04:14:34.614Z,1520.1
2022-10-22T04:15:34.669Z,1520
2022-10-22T04:16:34.608Z,1519.9
2022-10-22T04:17:34.601Z,1520
2022-10-22T04:18:34.602Z,1520
2022-10-22T04:19:34.605Z,1520.1
2022-10-22T04:20:34.627Z,1520.4
2022-10-22T04:21:34.597Z,1520.6
2022-10-22T04:22:34.610Z,1520.3
2022-10-22T04:23:34.619Z,1520.4
2022-10-22T04:24:34.624Z,1520.5
2022-10-22T04:25:34.613Z,1520.6
2022-10-22T04:26:34.615Z,1520.7
2022-10-22T04:27:34.603Z,1520.8
2022-10-22T04:28:34.626Z,1520.9
2022-10-22T04:29:34.603Z,1520.8
2022-10-22T04:30:34.609Z,1520.8
2022-10-22T04:31:34.614Z,1520.8
2022-10-22T04:32:34.647Z,1520.9
2022-10-22T04:33:34.610Z,1520.9
2022-10-22T04:34:34.633Z,1520.9
2022-10-22T04:35:34.612Z,1521
2022-10-22T04:36:34.600Z,1521.2
2022-10-22T04:37:34.608Z,1521
2022-10-22T04:38:34.633Z,1521.2
2022-10-22T04:39:34.611Z,1521.2
2022-10-22T04:40:34.610Z,1521.2
2022-10-22T04:41:34.603Z,1521.3
2022-10-22T04:42:34.615Z,1521.3
2022-10-22T04:43:34.605Z,1521.3
2022-10-22T04:44:34.621Z,1521.3
2022-10-22T04:45:34.611Z,1521.3
2022-10-22T04:46:34.617Z,1521.3
2022-10-22T04:47:34.608Z,1521.4
2022-10-22T04:48:34.607Z,1521.4
2022-10-22T04:49:34.606Z,1521.5
2022-10-22T04:50:34.613Z,1522.1
2022-10-22T04:51:34.639Z,1522.1
2022-10-22T04:52:34.617Z,1522.1
2022-10-22T04:53:34.608Z,1522.2
2022-10-22T04:54:34.610Z,1522.3
2022-10-22T04:55:34.643Z,1522.3
2022-10-22T04:56:34.613Z,1522.5
2022-10-22T04:57:34.620Z,1522.4
2022-10-22T04:58:34.616Z,1522.4
2022-10-22T04:59:34.622Z,1522.3
2022-10-22T05:00:34.613Z,1522.3
2022-10-22T05:01:37.023Z,1522.4
2022-10-22T05:02:34.616Z,1522.4
2022-10-22T05:03:34.617Z,1522.8
2022-10-22T05:04:34.617Z,1522.8
2022-10-22T05:05:34.621Z,1522.8
2022-10-22T05:06:34.617Z,1523
2022-10-22T05:07:34.614Z,1523
2022-10-22T05:08:34.704Z,1522.9
2022-10-22T05:09:34.609Z,1523
2022-10-22T05:10:34.611Z,1523.3
2022-10-22T05:11:34.618Z,1523.4
2022-10-22T05:12:34.774Z,1523.6
2022-10-22T05:13:34.612Z,1523.5
2022-10-22T05:14:34.618Z,1523.3
2022-10-22T05:15:34.623Z,1523.3
2022-10-22T05:17:34.619Z,1523.3
2022-10-22T05:18:34.623Z,1523.4
2022-10-22T05:19:34.612Z,1523.6
2022-10-22T05:20:34.620Z,1523.5
2022-10-22T05:21:34.621Z,1523.3
2022-10-22T05:22:34.649Z,1523.5
2022-10-22T05:23:34.629Z,1523.6
2022-10-22T05:24:34.614Z,1523.8
2022-10-22T05:25:34.624Z,1523.4
2022-10-22T05:26:34.626Z,1523.6
2022-10-22T05:27:34.623Z,1523.5
2022-10-22T05:28:34.617Z,1523.3
2022-10-22T05:29:34.642Z,1523.6
2022-10-22T05:30:34.622Z,1523.7
2022-10-22T05:31:34.625Z,1523.6
2022-10-22T05:32:34.628Z,1523.6
2022-10-22T05:33:34.627Z,1523.5
2022-10-22T05:34:34.615Z,1523.6
2022-10-22T05:35:34.631Z,1523.4
2022-10-22T05:36:34.617Z,1523.6
2022-10-22T05:38:34.622Z,1523.5
2022-10-22T05:39:34.638Z,1523.6
2022-10-22T05:40:34.636Z,1523.5
2022-10-22T05:41:34.625Z,1523.3
2022-10-22T05:42:34.623Z,1523.2
2022-10-22T05:43:34.632Z,1523.1
2022-10-22T05:44:34.629Z,1523.3
2022-10-22T05:45:34.628Z,1523.2
2022-10-22T05:46:34.630Z,1523.1
2022-10-22T05:47:34.629Z,1523.2
2022-10-22T05:48:34.648Z,1523.1
2022-10-22T05:49:34.625Z,1523.4
2022-10-22T05:50:34.642Z,1523.5
2022-10-22T05:51:34.631Z,1523.6
2022-10-22T05:52:34.629Z,1523.6
2022-10-22T05:53:34.670Z,1524
2022-10-22T05:54:34.625Z,1523.9
2022-10-22T05:55:34.632Z,1523.7
2022-10-22T05:56:34.642Z,1523.6
2022-10-22T05:57:34.631Z,1523.5
2022-10-22T05:58:34.633Z,1523.5
2022-10-22T05:59:34.626Z,1523.4
2022-10-22T06:00:34.628Z,1523.5
2022-10-22T06:01:34.627Z,1523.2
2022-10-22T06:02:34.678Z,1523
2022-10-22T06:03:34.631Z,1523.1
2022-10-22T06:04:34.635Z,1523
2022-10-22T06:05:34.635Z,1522.9
2022-10-22T06:07:34.639Z,1523.5
2022-10-22T06:08:34.708Z,1523.4
2022-10-22T06:09:34.719Z,1523.2
2022-10-22T06:10:34.633Z,1523.3
2022-10-22T06:11:35.344Z,1523.4
2022-10-22T06:12:34.640Z,1523.2
2022-10-22T06:13:34.629Z,1523.5
2022-10-22T06:14:34.641Z,1523.5
2022-10-22T06:15:34.663Z,1523.3
2022-10-22T06:16:34.642Z,1523.2
2022-10-22T06:17:34.639Z,1523
2022-10-22T06:18:34.635Z,1523.1
2022-10-22T06:19:34.634Z,1523.1
2022-10-22T06:20:34.646Z,1523.1
2022-10-22T06:21:34.640Z,1523
2022-10-22T06:22:34.640Z,1522.9
2022-10-22T06:23:34.641Z,1523
2022-10-22T06:24:34.661Z,1523.1
2022-10-22T06:25:34.635Z,1523.1
2022-10-22T06:26:34.640Z,1523.2
2022-10-22T06:27:34.643Z,1523.4
2022-10-22T06:28:34.642Z,1523.3
2022-10-22T06:29:34.645Z,1523.6
2022-10-22T06:30:34.639Z,1524.1
2022-10-22T06:31:34.654Z,1524.1
2022-10-22T06:32:34.646Z,1523.9
2022-10-22T06:33:34.645Z,1524
2022-10-22T06:34:34.643Z,1523.8
2022-10-22T06:35:34.674Z,1523.9
2022-10-22T06:36:34.688Z,1523.9
2022-10-22T06:37:34.648Z,1524.2
2022-10-22T06:38:34.646Z,1524.1
2022-10-22T06:39:34.644Z,1524.1
2022-10-22T06:40:34.644Z,1523.9
2022-10-22T06:41:34.728Z,1524
2022-10-22T06:42:34.644Z,1524.1
2022-10-22T06:43:34.642Z,1524.1
2022-10-22T06:45:34.652Z,1524.4
2022-10-22T06:46:34.647Z,1524.3
2022-10-22T06:47:34.644Z,1524.3
2022-10-22T06:48:34.643Z,1524.1
2022-10-22T06:49:34.648Z,1524.1
2022-10-22T06:50:34.651Z,1524.5
2022-10-22T06:51:34.650Z,1524.4
2022-10-22T06:53:34.654Z,1524.3
2022-10-22T06:54:34.654Z,1524.6
2022-10-22T06:55:34.671Z,1524.6
2022-10-22T06:56:34.646Z,1524.6
2022-10-22T06:57:34.660Z,1524.7
2022-10-22T06:58:34.652Z,1524.4
2022-10-22T06:59:34.654Z,1524.5
2022-10-22T07:01:34.711Z,1525
2022-10-22T07:02:34.653Z,1524.9
2022-10-22T07:03:34.648Z,1524.9
2022-10-22T07:04:34.655Z,1524.9
2022-10-22T07:06:34.650Z,1524.7
2022-10-22T07:07:34.648Z,1524.8
2022-10-22T07:08:34.719Z,1525
2022-10-22T07:09:34.650Z,1524.9
2022-10-22T07:10:34.657Z,1525
2022-10-22T07:11:34.651Z,1525.1
2022-10-22T07:12:34.656Z,1524.8
2022-10-22T07:13:34.649Z,1525.3
2022-10-22T07:14:34.655Z,1525.2
2022-10-22T07:15:34.656Z,1525.3
2022-10-22T07:16:34.660Z,1525.3
2022-10-22T07:17:34.727Z,1525.3
2022-10-22T07:18:34.653Z,1525.3
2022-10-22T07:20:34.705Z,1525.5
2022-10-22T07:21:34.652Z,1525.6
2022-10-22T07:22:34.656Z,1525.6
2022-10-22T07:23:34.660Z,1525.9
2022-10-22T07:24:34.651Z,1526
2022-10-22T07:25:34.655Z,1526.1
2022-10-22T07:26:34.678Z,1526
2022-10-22T07:27:34.652Z,1526
2022-10-22T07:28:34.656Z,1526.2
2022-10-22T07:29:34.660Z,1526.1
2022-10-22T07:30:34.663Z,1526.4
2022-10-22T07:31:34.666Z,1526.5
2022-10-22T07:32:34.654Z,1526.3
2022-10-22T07:33:34.657Z,1526.5
2022-10-22T07:34:34.679Z,1526.5
2022-10-22T07:35:34.660Z,1526.7
2022-10-22T07:36:34.658Z,1526.5
2022-10-22T07:37:34.662Z,1526.9
2022-10-22T07:38:34.658Z,1527
2022-10-22T07:39:34.691Z,1526.7
2022-10-22T07:41:34.670Z,1526.8
2022-10-22T07:42:34.661Z,1526.9
2022-10-22T07:43:34.658Z,1526.9
2022-10-22T07:44:34.661Z,1526.8
2022-10-22T07:45:34.664Z,1526.9
2022-10-22T07:46:34.664Z,1527.1
2022-10-22T07:47:34.666Z,1527
2022-10-22T07:48:34.659Z,1527
2022-10-22T07:49:34.673Z,1526.7
2022-10-22T07:50:34.732Z,1526.7
2022-10-22T07:51:35.287Z,1526.7
2022-10-22T07:52:34.669Z,1527
2022-10-22T07:53:34.665Z,1527.2
2022-10-22T07:54:34.676Z,1527.3
2022-10-22T07:55:34.667Z,1527.5
2022-10-22T07:56:34.663Z,1527.6
2022-10-22T07:57:34.693Z,1527.2
2022-10-22T07:58:34.661Z,1527.4
2022-10-22T07:59:34.665Z,1527.3
2022-10-22T08:00:34.671Z,1527.4
2022-10-22T08:01:34.737Z,1527.1
2022-10-22T08:02:34.666Z,1527.3
2022-10-22T08:03:34.678Z,1527.4
2022-10-22T08:04:34.672Z,1527.5
2022-10-22T08:05:34.675Z,1527.3
2022-10-22T08:06:34.665Z,1527.1
2022-10-22T08:07:34.666Z,1526.9
2022-10-22T08:08:34.811Z,1526.9
2022-10-22T08:09:34.670Z,1527.2
2022-10-22T08:10:34.671Z,1526.8
2022-10-22T08:11:34.679Z,1526.8
2022-10-22T08:12:34.674Z,1526.9
2022-10-22T08:13:34.666Z,1526.8
2022-10-22T08:14:34.674Z,1526.8
2022-10-22T08:15:34.743Z,1526.6
2022-10-22T08:16:34.674Z,1526.7
2022-10-22T08:17:34.674Z,1526.7
2022-10-22T08:18:34.675Z,1526.9
2022-10-22T08:19:34.675Z,1526.9
2022-10-22T08:20:34.675Z,1527.1
2022-10-22T08:21:34.678Z,1527.1
2022-10-22T08:22:34.670Z,1527.3
2022-10-22T08:23:34.678Z,1527.7
2022-10-22T08:24:34.674Z,1527.6
2022-10-22T08:25:34.677Z,1528
2022-10-22T08:26:34.677Z,1528
2022-10-22T08:27:34.692Z,1528
2022-10-22T08:28:34.698Z,1528.2
2022-10-22T08:29:34.670Z,1528.3
2022-10-22T08:30:34.680Z,1528.3
2022-10-22T08:31:34.685Z,1528.4
2022-10-22T08:32:34.694Z,1528.5
2022-10-22T08:33:34.682Z,1528.5
2022-10-22T08:34:34.677Z,1528.5
2022-10-22T08:35:34.679Z,1528.5
2022-10-22T08:36:34.673Z,1528.4
2022-10-22T08:37:34.674Z,1528.3
2022-10-22T08:38:34.688Z,1528.3
2022-10-22T08:39:34.681Z,1528.4
2022-10-22T08:40:34.684Z,1528.4
2022-10-22T08:41:34.681Z,1528.1
2022-10-22T08:42:34.676Z,1528
2022-10-22T08:43:34.685Z,1528.3
2022-10-22T08:44:34.678Z,1528.4
2022-10-22T08:45:34.681Z,1528.4
2022-10-22T08:46:34.685Z,1528
2022-10-22T08:47:34.715Z,1527.8
2022-10-22T08:48:34.684Z,1528
2022-10-22T08:49:37.146Z,1528.2
2022-10-22T08:50:34.683Z,1528.1
2022-10-22T08:51:34.682Z,1528.5
2022-10-22T08:52:34.688Z,1528.5
2022-10-22T08:53:34.692Z,1528.2
2022-10-22T08:55:37.285Z,1528.3
2022-10-22T08:56:34.685Z,1528
2022-10-22T08:57:34.686Z,1528.1
2022-10-22T08:58:34.696Z,1528.4
2022-10-22T08:59:34.704Z,1528.3
2022-10-22T09:00:34.687Z,1527.9
2022-10-22T09:01:34.692Z,1528.1
2022-10-22T09:02:34.682Z,1528.3
2022-10-22T09:03:34.690Z,1528.2
2022-10-22T09:04:34.890Z,1528
2022-10-22T09:05:34.695Z,1528.3
2022-10-22T09:06:34.684Z,1528.2
2022-10-22T09:07:34.682Z,1528.1
2022-10-22T09:08:34.750Z,1528.4
2022-10-22T09:09:34.684Z,1528.6
2022-10-22T09:10:34.690Z,1528.5
2022-10-22T09:11:34.686Z,1528.4
2022-10-22T09:12:34.697Z,1528.3
2022-10-22T09:13:34.688Z,1528.5
2022-10-22T09:14:34.683Z,1528.6
2022-10-22T09:15:34.689Z,1529
2022-10-22T09:16:34.694Z,1528.9
2022-10-22T09:17:34.688Z,1528.9
2022-10-22T09:18:34.695Z,1528.9
2022-10-22T09:19:34.690Z,1528.9
2022-10-22T09:20:34.692Z,1528.8
2022-10-22T09:21:34.689Z,1528.9
2022-10-22T09:23:34.709Z,1529.1
2022-10-22T09:24:34.690Z,1528.9
2022-10-22T09:26:34.697Z,1528.6
2022-10-22T09:27:34.693Z,1529.1
2022-10-22T09:28:34.692Z,1529.2
2022-10-22T09:29:34.693Z,1529.2
2022-10-22T09:30:34.720Z,1529.3
2022-10-22T09:31:34.712Z,1529.8
2022-10-22T09:32:34.988Z,1529.4
2022-10-22T09:33:34.694Z,1529.1
2022-10-22T09:34:34.697Z,1529.1
2022-10-22T09:35:34.695Z,1529.3
2022-10-22T09:36:34.686Z,1529.6
2022-10-22T09:37:34.693Z,1529.7
2022-10-22T09:38:34.689Z,1529.4
2022-10-22T09:39:34.696Z,1529.2
2022-10-22T09:40:34.684Z,1529.3
2022-10-22T09:41:34.691Z,1529.4
2022-10-22T09:42:34.694Z,1529.2
2022-10-22T09:43:34.688Z,1529.6
2022-10-22T09:44:34.701Z,1529.4
2022-10-22T09:45:34.699Z,1529.3
2022-10-22T09:47:43.166Z,1529
2022-10-22T09:48:34.702Z,1529.1
2022-10-22T09:49:34.690Z,1529.2
2022-10-22T09:50:34.694Z,1529.3
2022-10-22T09:51:34.714Z,1529
2022-10-22T09:52:34.703Z,1529.1
2022-10-22T09:53:34.700Z,1529.2
2022-10-22T09:54:34.710Z,1529.6
2022-10-22T09:55:34.693Z,1529.3
2022-10-22T09:56:34.701Z,1529.1
2022-10-22T09:57:34.702Z,1529.1
2022-10-22T09:58:34.735Z,1529
2022-10-22T09:59:34.697Z,1529
2022-10-22T10:00:34.704Z,1529.2
2022-10-22T10:01:34.729Z,1529.1
2022-10-22T10:02:38.546Z,1529
2022-10-22T10:03:34.701Z,1529.1
2022-10-22T10:04:34.705Z,1529.6
2022-10-22T10:06:34.705Z,1529.4
2022-10-22T10:07:34.703Z,1529.3
2022-10-22T10:08:34.752Z,1529.4
2022-10-22T10:09:34.697Z,1529.3
2022-10-22T10:10:34.707Z,1529.3
2022-10-22T10:11:34.702Z,1529.3
2022-10-22T10:12:34.812Z,1529.3
2022-10-22T10:13:34.734Z,1529.3
2022-10-22T10:14:34.709Z,1529.2
2022-10-22T10:15:34.701Z,1529.1
2022-10-22T10:16:34.709Z,1529.6
2022-10-22T10:17:34.702Z,1529.4
2022-10-22T10:18:34.709Z,1529.4
2022-10-22T10:19:34.709Z,1529.1
2022-10-22T10:20:34.702Z,1529.1
2022-10-22T10:21:34.713Z,1529.1
2022-10-22T10:23:34.709Z,1529.7
2022-10-22T10:24:34.705Z,1529.5
2022-10-22T10:25:34.717Z,1529.1
2022-10-22T10:26:34.707Z,1529.3
2022-10-22T10:27:34.705Z,1529.6
2022-10-22T10:28:34.714Z,1529.8
2022-10-22T10:29:34.774Z,1529.5
2022-10-22T10:30:34.703Z,1529.6
2022-10-22T10:31:34.716Z,1529.9
2022-10-22T10:32:34.744Z,1530.1
2022-10-22T10:33:34.715Z,1530.1
2022-10-22T10:34:34.703Z,1530
2022-10-22T10:35:34.709Z,1530.3
2022-10-22T10:36:34.713Z,1530.5
2022-10-22T10:37:34.711Z,1530.8
2022-10-22T10:38:34.718Z,1530.9
2022-10-22T10:39:34.707Z,1530.7
2022-10-22T10:40:34.723Z,1531
2022-10-22T10:41:34.706Z,1531
2022-10-22T10:42:34.728Z,1531.3
2022-10-22T10:44:34.713Z,1531.6
2022-10-22T10:45:34.708Z,1531.6
2022-10-22T10:46:36.983Z,1531.7
2022-10-22T10:47:34.716Z,1531.6
2022-10-22T10:48:34.795Z,1531.7
2022-10-22T10:49:34.730Z,1531.9
2022-10-22T10:50:34.721Z,1531.6
2022-10-22T10:51:34.711Z,1530.9
2022-10-22T10:52:34.719Z,1530.7
2022-10-22T10:53:34.720Z,1531.1
2022-10-22T10:54:34.777Z,1530.3
2022-10-22T10:55:34.725Z,1530.3
2022-10-22T10:56:36.897Z,1530.6
2022-10-22T10:57:34.737Z,1530.4
2022-10-22T10:58:34.719Z,1530.1
2022-10-22T10:59:34.721Z,1529.9
2022-10-22T11:00:34.723Z,1529.9
2022-10-22T11:01:34.785Z,1529.8
2022-10-22T11:02:34.721Z,1530.3
2022-10-22T11:03:34.750Z,1530.3
2022-10-22T11:05:34.730Z,1530.3
2022-10-22T11:06:34.726Z,1530.3
2022-10-22T11:07:35.334Z,1530.7
2022-10-22T11:08:34.821Z,1530.9
2022-10-22T11:09:34.719Z,1531.1
2022-10-22T11:10:34.726Z,1531.2
2022-10-22T11:11:34.730Z,1530.8
2022-10-22T11:13:34.716Z,1530.6
2022-10-22T11:14:34.721Z,1531
2022-10-22T11:15:34.723Z,1531
2022-10-22T11:16:34.735Z,1531.1
2022-10-22T11:17:34.726Z,1531.1
2022-10-22T11:18:34.721Z,1530.7
2022-10-22T11:19:50.146Z,1531.1
2022-10-22T11:20:34.731Z,1531.3
2022-10-22T11:21:34.725Z,1531.4
2022-10-22T11:22:34.728Z,1531.7
2022-10-22T11:23:34.730Z,1531.7
2022-10-22T11:24:34.726Z,1531.7
2022-10-22T11:25:34.722Z,1532.1
2022-10-22T11:26:34.732Z,1532.3
2022-10-22T11:27:34.729Z,1532.5
2022-10-22T11:28:34.724Z,1532.3
2022-10-22T11:29:34.734Z,1532.3
2022-10-22T11:30:34.723Z,1532.1
2022-10-22T11:31:34.733Z,1532.2
2022-10-22T11:32:34.726Z,1532.4
2022-10-22T11:34:34.913Z,1531.4
2022-10-22T11:35:34.731Z,1531.7
2022-10-22T11:36:34.739Z,1531.6
2022-10-22T11:37:34.730Z,1531.9
2022-10-22T11:38:35.139Z,1532.2
2022-10-22T11:39:34.757Z,1532.5
2022-10-22T11:40:34.725Z,1532
2022-10-22T11:41:34.731Z,1531.8
2022-10-22T11:42:34.734Z,1531.6
2022-10-22T11:43:34.737Z,1531.4
2022-10-22T11:44:34.736Z,1531.3
2022-10-22T11:45:34.734Z,1531.9
2022-10-22T11:47:34.733Z,1531.9
2022-10-22T11:48:34.733Z,1532
2022-10-22T11:49:34.739Z,1531.7
2022-10-22T11:50:34.754Z,1531.9
2022-10-22T11:51:34.738Z,1532.2
2022-10-22T11:52:34.742Z,1531.8
2022-10-22T11:53:34.750Z,1531.6
2022-10-22T11:54:34.743Z,1531.7
2022-10-22T11:55:34.734Z,1531.5
2022-10-22T11:56:34.731Z,1531.7
2022-10-22T11:58:34.755Z,1531.7
2022-10-22T11:59:34.731Z,1532
2022-10-22T12:00:34.749Z,1532.2
2022-10-22T12:02:34.743Z,1532
2022-10-22T12:03:34.773Z,1531.6
2022-10-22T12:04:34.843Z,1531.8
2022-10-22T12:05:34.781Z,1531.2
2022-10-22T12:06:34.750Z,1531.5
2022-10-22T12:07:34.748Z,1531.6
2022-10-22T12:08:34.800Z,1531.7
2022-10-22T12:09:34.744Z,1531.6
2022-10-22T12:10:34.741Z,1531.8
2022-10-22T12:11:34.744Z,1531.4
2022-10-22T12:12:34.738Z,1531.6
2022-10-22T12:13:34.741Z,1531.4
2022-10-22T12:14:34.737Z,1531.5
2022-10-22T12:15:34.746Z,1531.8
2022-10-22T12:16:54.554Z,1531.7
2022-10-22T12:17:34.747Z,1531.6
2022-10-22T12:18:34.745Z,1531.1
2022-10-22T12:19:34.746Z,1531.4
2022-10-22T12:20:34.750Z,1531.8
2022-10-22T12:21:34.742Z,1531.6
2022-10-22T12:22:34.743Z,1531.4
2022-10-22T12:23:34.751Z,1531.6
2022-10-22T12:24:34.747Z,1530.9
2022-10-22T12:25:35.658Z,1531.2
2022-10-22T12:26:34.758Z,1531.3
2022-10-22T12:27:34.746Z,1531.2
2022-10-22T12:28:34.753Z,1531.5
2022-10-22T12:29:34.759Z,1531.3
2022-10-22T12:30:34.793Z,1531.2
2022-10-22T12:31:34.755Z,1531.5
2022-10-22T12:32:34.743Z,1531.6
2022-10-22T12:33:34.748Z,1532
2022-10-22T12:34:34.742Z,1531.7
2022-10-22T12:35:34.761Z,1531.5
2022-10-22T12:36:34.795Z,1531.5
2022-10-22T12:37:34.751Z,1531.1
2022-10-22T12:38:34.750Z,1531.6
2022-10-22T12:40:34.760Z,1531.6
2022-10-22T12:41:34.757Z,1531.1
2022-10-22T12:42:34.749Z,1530.9
2022-10-22T12:43:34.747Z,1530.8
2022-10-22T12:44:34.759Z,1530.9
2022-10-22T12:45:34.755Z,1531
2022-10-22T12:46:34.777Z,1531
2022-10-22T12:47:34.758Z,1531.3
2022-10-22T12:48:34.753Z,1531.2
2022-10-22T12:49:34.754Z,1531.2
2022-10-22T12:50:34.759Z,1531.8
2022-10-22T12:51:34.810Z,1532
2022-10-22T12:52:34.759Z,1532.1
2022-10-22T12:53:34.752Z,1531.9
2022-10-22T12:54:34.751Z,1531.9
2022-10-22T12:55:34.752Z,1532
2022-10-22T12:56:34.770Z,1532.2
2022-10-22T12:57:34.757Z,1531.8
2022-10-22T12:58:34.757Z,1532.1
2022-10-22T12:59:34.759Z,1532.2
2022-10-22T13:01:34.770Z,1532.4
2022-10-22T13:03:34.768Z,1532.8
2022-10-22T13:04:34.771Z,1532.1
2022-10-22T13:05:34.758Z,1532.7
2022-10-22T13:06:34.775Z,1532.3